createdAt,value
2018-01-04T00:00:39.321Z,97308.17
2018-01-04T00:03:09.146Z,97304.56
2018-01-04T00:05:39.056Z,97295.06
2018-01-04T00:08:08.854Z,97304.84
2018-01-04T00:10:38.749Z,97303.78
2018-01-04T00:13:08.689Z,97293.31
2018-01-04T00:15:38.550Z,97312.31
2018-01-04T00:18:08.157Z,97309.06
2018-01-04T00:20:38.132Z,97298.91
2018-01-04T00:23:07.939Z,97303.59
2018-01-04T00:25:37.961Z,97320.10
2018-01-04T00:28:07.983Z,97312.31
2018-01-04T00:30:37.832Z,97327.45
2018-01-04T00:33:07.664Z,97313.89
2018-01-04T00:35:37.492Z,97319.95
2018-01-04T00:38:07.319Z,97313.65
2018-01-04T00:40:37.233Z,97305.73
2018-01-04T00:43:07.081Z,97301.16
2018-01-04T00:45:36.932Z,97324.73
2018-01-04T00:48:06.750Z,97330.12
2018-01-04T00:50:36.627Z,97321.11
2018-01-04T00:53:06.444Z,97330.85
2018-01-04T00:55:36.314Z,97344.64
2018-01-04T01:00:34.844Z,97345.49
2018-01-04T01:03:04.398Z,97340.81
2018-01-04T01:05:34.208Z,97339.36
2018-01-04T01:08:04.153Z,97341.05
2018-01-04T01:10:33.993Z,97349.85
2018-01-04T01:15:47.029Z,97337.05
2018-01-04T01:18:16.867Z,97345.49
2018-01-04T01:20:46.707Z,97351.30
2018-01-04T01:23:16.597Z,97352.41
2018-01-04T01:25:46.408Z,97363.51
2018-01-04T01:28:16.236Z,97364.97
2018-01-04T01:30:46.034Z,97357.42
2018-01-04T01:33:15.880Z,97363.45
2018-01-04T01:35:45.809Z,97356.25
2018-01-04T01:38:15.682Z,97364.33
2018-01-04T01:40:45.484Z,97364.27
2018-01-04T01:43:15.472Z,97366.95
2018-01-04T01:45:45.336Z,97368.59
2018-01-04T01:48:15.202Z,97370.86
2018-01-04T01:50:45.062Z,97356.30
2018-01-04T01:53:15.037Z,97366.88
2018-01-04T01:55:44.984Z,97357.22
2018-01-04T01:58:14.850Z,97357.75
2018-01-04T02:00:45.276Z,97357.70
2018-01-04T02:03:15.195Z,97360.78
2018-01-04T02:05:45.146Z,97357.53
2018-01-04T02:08:15.038Z,97356.48
2018-01-04T02:10:44.857Z,97357.23
2018-01-04T02:13:14.727Z,97359.79
2018-01-04T02:15:44.559Z,97362.59
2018-01-04T02:18:25.286Z,97364.98
2018-01-04T02:21:06.081Z,97357.37
2018-01-04T02:23:46.689Z,97356.08
2018-01-04T02:26:27.207Z,97353.92
2018-01-04T02:28:59.728Z,97339.44
2018-01-04T02:31:40.373Z,97336.11
2018-01-04T02:34:21.128Z,97333.02
2018-01-04T02:37:01.830Z,97335.25
2018-01-04T02:39:42.374Z,97324.17
2018-01-04T02:42:23.473Z,97325.00
2018-01-04T02:48:01.916Z,97324.94
2018-01-04T02:50:31.144Z,97323.72
2018-01-04T02:53:02.134Z,97319.41
2018-01-04T02:55:31.441Z,97321.67
2018-01-04T02:58:00.760Z,97315.52
2018-01-04T03:00:30.040Z,97314.75
2018-01-04T03:02:59.304Z,97311.50
2018-01-04T03:05:28.562Z,97306.09
2018-01-04T03:07:57.845Z,97310.69
2018-01-04T03:10:27.160Z,97305.67
2018-01-04T03:12:56.453Z,97302.46
2018-01-04T03:15:25.774Z,97309.00
2018-01-04T03:17:55.201Z,97306.61
2018-01-04T03:20:32.832Z,97312.38
2018-01-04T03:23:09.636Z,97307.41
2018-01-04T03:29:04.209Z,97310.92
2018-01-04T03:31:39.004Z,97308.00
2018-01-04T03:34:13.609Z,97307.44
2018-01-04T03:36:48.346Z,97308.81
2018-01-04T03:39:23.404Z,97307.55
2018-01-04T03:45:04.367Z,97316.03
2018-01-04T03:47:38.957Z,97309.35
2018-01-04T03:50:13.545Z,97310.73
2018-01-04T03:52:42.805Z,97309.52
2018-01-04T03:55:17.692Z,97308.47
2018-01-04T03:57:52.459Z,97310.89
2018-01-04T04:00:27.308Z,97318.77
2018-01-04T04:02:56.392Z,97318.32
2018-01-04T04:05:31.225Z,97320.22
2018-01-04T04:08:06.217Z,97325.23
2018-01-04T04:10:35.556Z,97331.01
2018-01-04T04:13:04.952Z,97331.64
2018-01-04T04:15:34.226Z,97334.37
2018-01-04T04:18:03.493Z,97319.30
2018-01-04T04:20:32.787Z,97334.02
2018-01-04T04:23:02.095Z,97334.08
2018-01-04T04:25:31.420Z,97335.83
2018-01-04T04:28:00.891Z,97337.16
2018-01-04T04:30:30.280Z,97337.33
2018-01-04T04:32:59.625Z,97339.09
2018-01-04T04:35:28.872Z,97332.22
2018-01-04T04:37:58.220Z,97336.05
2018-01-04T04:40:27.508Z,97332.97
2018-01-04T04:42:56.864Z,97335.28
2018-01-04T04:45:26.889Z,97329.27
2018-01-04T04:47:56.176Z,97325.63
2018-01-04T04:50:25.522Z,97331.30
2018-01-04T04:52:54.776Z,97328.53
2018-01-04T04:55:24.166Z,97322.88
2018-01-04T04:57:53.436Z,97328.70
2018-01-04T05:00:22.831Z,97327.52
2018-01-04T05:02:52.867Z,97330.88
2018-01-04T05:05:22.296Z,97324.23
2018-01-04T05:07:51.634Z,97320.94
2018-01-04T05:10:20.972Z,97326.00
2018-01-04T05:12:50.313Z,97319.88
2018-01-04T05:15:19.618Z,97331.21
2018-01-04T05:17:48.554Z,97332.61
2018-01-04T05:20:17.832Z,97329.06
2018-01-04T05:22:49.023Z,97329.11
2018-01-04T05:25:18.504Z,97338.48
2018-01-04T05:27:47.894Z,97335.54
2018-01-04T05:30:17.234Z,97328.47
2018-01-04T05:32:47.362Z,97349.59
2018-01-04T05:35:16.661Z,97342.75
2018-01-04T05:37:47.332Z,97342.12
2018-01-04T05:40:16.654Z,97342.56
2018-01-04T05:42:46.359Z,97348.45
2018-01-04T05:45:16.448Z,97346.81
2018-01-04T05:47:46.338Z,97351.76
2018-01-04T05:50:16.133Z,97346.45
2018-01-04T05:52:45.538Z,97335.67
2018-01-04T05:55:14.905Z,97337.55
2018-01-04T05:57:45.996Z,97345.52
2018-01-04T06:00:18.764Z,97342.32
2018-01-04T06:02:48.316Z,97344.48
2018-01-04T06:05:17.998Z,97340.80
2018-01-04T06:07:49.923Z,97341.41
2018-01-04T06:10:20.302Z,97348.59
2018-01-04T06:12:54.176Z,97357.24
2018-01-04T06:15:36.082Z,97351.19
2018-01-04T06:18:07.188Z,97358.70
2018-01-04T06:20:36.676Z,97364.70
2018-01-04T06:23:06.017Z,97367.50
2018-01-04T06:25:35.423Z,97368.27
2018-01-04T06:28:04.777Z,97372.48
2018-01-04T06:30:36.031Z,97371.60
2018-01-04T06:33:05.340Z,97363.87
2018-01-04T06:35:34.619Z,97371.03
2018-01-04T06:38:14.443Z,97364.57
2018-01-04T06:43:24.223Z,97356.95
2018-01-04T06:45:53.463Z,97357.92
2018-01-04T06:48:23.053Z,97364.87
2018-01-04T06:50:52.758Z,97360.62
2018-01-04T06:53:22.087Z,97360.39
2018-01-04T06:55:51.376Z,97361.71
2018-01-04T06:58:21.512Z,97367.52
2018-01-04T07:00:50.807Z,97366.36
2018-01-04T07:03:20.070Z,97358.80
2018-01-04T07:05:49.322Z,97362.20
2018-01-04T07:08:18.557Z,97368.37
2018-01-04T07:10:47.832Z,97368.55
2018-01-04T07:13:17.223Z,97360.67
2018-01-04T07:15:46.508Z,97361.38
2018-01-04T07:18:15.962Z,97360.12
2018-01-04T07:20:45.252Z,97345.15
2018-01-04T07:23:14.499Z,97348.28
2018-01-04T07:25:43.798Z,97348.16
2018-01-04T07:28:13.073Z,97353.72
2018-01-04T07:30:42.396Z,97346.74
2018-01-04T07:33:11.802Z,97345.08
2018-01-04T07:35:41.066Z,97339.02
2018-01-04T07:38:10.657Z,97338.12
2018-01-04T07:40:40.014Z,97332.36
2018-01-04T07:43:09.825Z,97327.77
2018-01-04T07:45:39.126Z,97328.59
2018-01-04T07:48:08.931Z,97338.48
2018-01-04T07:50:38.835Z,97340.30
2018-01-04T07:53:08.678Z,97344.09
2018-01-04T07:55:38.543Z,97345.02
2018-01-04T07:58:08.376Z,97357.77
2018-01-04T08:00:38.265Z,97360.43
2018-01-04T08:03:08.432Z,97353.05
2018-01-04T08:05:38.291Z,97344.84
2018-01-04T08:08:08.122Z,97349.23
2018-01-04T08:10:38.018Z,97339.70
2018-01-04T08:13:08.744Z,97340.28
2018-01-04T08:15:38.608Z,97351.97
2018-01-04T08:18:08.159Z,97354.00
2018-01-04T08:20:38.007Z,97345.91
2018-01-04T08:23:07.984Z,97349.61
2018-01-04T08:25:37.868Z,97363.10
2018-01-04T08:28:07.975Z,97362.73
2018-01-04T08:30:39.216Z,97368.81
2018-01-04T08:33:09.533Z,97382.91
2018-01-04T08:35:40.285Z,97384.84
2018-01-04T08:38:10.323Z,97387.28
2018-01-04T08:40:40.157Z,97381.31
2018-01-04T08:43:10.493Z,97382.70
2018-01-04T08:45:40.271Z,97375.84
2018-01-04T08:48:10.108Z,97376.73
2018-01-04T08:50:39.946Z,97370.96
2018-01-04T08:53:09.916Z,97374.91
2018-01-04T08:55:40.909Z,97378.95
2018-01-04T08:58:11.640Z,97376.72
2018-01-04T09:00:41.608Z,97389.09
2018-01-04T09:03:11.423Z,97394.97
2018-01-04T09:05:41.265Z,97390.70
2018-01-04T09:08:11.089Z,97399.39
2018-01-04T09:10:40.954Z,97399.63
2018-01-04T09:13:10.677Z,97403.57
2018-01-04T09:15:40.969Z,97400.90
2018-01-04T09:18:10.705Z,97400.51
2018-01-04T09:20:40.657Z,97409.93
2018-01-04T09:23:10.482Z,97412.33
2018-01-04T09:25:41.000Z,97408.70
2018-01-04T09:28:10.943Z,97418.50
2018-01-04T09:30:40.817Z,97418.48
2018-01-04T09:33:10.624Z,97418.41
2018-01-04T09:35:40.447Z,97415.73
2018-01-04T09:38:10.355Z,97417.13
2018-01-04T09:40:40.161Z,97418.34
2018-01-04T09:43:09.974Z,97396.72
2018-01-04T09:45:40.059Z,97405.17
2018-01-04T09:48:10.134Z,97406.80
2018-01-04T09:50:40.034Z,97405.05
2018-01-04T09:53:10.072Z,97401.15
2018-01-04T09:55:39.953Z,97395.55
2018-01-04T09:58:10.152Z,97393.12
2018-01-04T10:00:39.790Z,97392.73
2018-01-04T10:03:09.374Z,97390.72
2018-01-04T10:05:39.171Z,97374.33
2018-01-04T10:08:08.971Z,97375.44
2018-01-04T10:10:38.768Z,97372.20
2018-01-04T10:13:08.776Z,97362.39
2018-01-04T10:15:38.694Z,97356.86
2018-01-04T10:18:08.260Z,97363.59
2018-01-04T10:20:38.098Z,97355.89
2018-01-04T10:23:07.991Z,97359.00
2018-01-04T10:25:37.804Z,97347.86
2018-01-04T10:28:07.926Z,97353.09
2018-01-04T10:30:37.852Z,97351.03
2018-01-04T10:33:07.686Z,97353.73
2018-01-04T10:35:37.557Z,97353.23
2018-01-04T10:38:07.404Z,97349.86
2018-01-04T10:40:38.235Z,97350.00
2018-01-04T10:43:08.027Z,97349.63
2018-01-04T10:45:37.874Z,97344.52
2018-01-04T10:48:07.439Z,97337.27
2018-01-04T10:50:37.418Z,97337.23
2018-01-04T10:53:07.066Z,97333.73
2018-01-04T10:55:36.857Z,97335.06
2018-01-04T10:58:07.006Z,97333.88
2018-01-04T11:00:39.065Z,97328.66
2018-01-04T11:03:08.957Z,97325.28
2018-01-04T11:05:39.218Z,97316.45
2018-01-04T11:08:09.157Z,97312.14
2018-01-04T11:10:39.592Z,97302.66
2018-01-04T11:13:09.437Z,97305.33
2018-01-04T11:15:39.335Z,97310.42
2018-01-04T11:18:09.181Z,97307.08
2018-01-04T11:20:38.988Z,97303.70
2018-01-04T11:23:09.007Z,97300.11
2018-01-04T11:25:38.850Z,97295.95
2018-01-04T11:28:09.172Z,97293.13
2018-01-04T11:30:39.047Z,97284.27
2018-01-04T11:33:09.000Z,97286.81
2018-01-04T11:35:40.570Z,97275.80
2018-01-04T11:38:11.223Z,97281.05
2018-01-04T11:40:41.123Z,97269.64
2018-01-04T11:43:10.937Z,97270.05
2018-01-04T11:45:40.792Z,97266.67
2018-01-04T11:48:10.721Z,97259.82
2018-01-04T11:50:40.568Z,97257.56
2018-01-04T11:53:11.140Z,97245.74
2018-01-04T11:55:40.924Z,97234.06
2018-01-04T11:58:10.767Z,97233.91
2018-01-04T12:00:40.596Z,97236.89
2018-01-04T12:03:11.261Z,97234.20
2018-01-04T12:05:40.824Z,97230.17
2018-01-04T12:08:10.650Z,97223.57
2018-01-04T12:10:40.448Z,97221.05
2018-01-04T12:13:10.082Z,97220.91
2018-01-04T12:15:40.235Z,97214.34
2018-01-04T12:18:10.354Z,97215.67
2018-01-04T12:20:40.212Z,97210.43
2018-01-04T12:23:10.037Z,97205.06
2018-01-04T12:25:40.017Z,97205.85
2018-01-04T12:28:10.264Z,97193.25
2018-01-04T12:30:40.093Z,97192.59
2018-01-04T12:33:09.940Z,97178.63
2018-01-04T12:35:39.818Z,97177.70
2018-01-04T12:38:10.773Z,97178.08
2018-01-04T12:40:40.599Z,97166.03
2018-01-04T12:43:10.409Z,97164.94
2018-01-04T12:45:40.373Z,97152.86
2018-01-04T12:48:10.288Z,97151.91
2018-01-04T12:50:40.161Z,97152.21
2018-01-04T12:53:10.101Z,97149.64
2018-01-04T12:55:39.959Z,97145.77
2018-01-04T12:58:09.551Z,97131.39
2018-01-04T13:00:39.385Z,97132.59
2018-01-04T13:03:09.306Z,97123.61
2018-01-04T13:05:39.131Z,97116.91
2018-01-04T13:08:09.257Z,97117.20
2018-01-04T13:10:39.868Z,97120.68
2018-01-04T13:13:09.766Z,97120.81
2018-01-04T13:15:40.279Z,97122.44
2018-01-04T13:18:10.279Z,97117.07
2018-01-04T13:20:40.240Z,97117.31
2018-01-04T13:23:10.178Z,97121.91
2018-01-04T13:25:40.504Z,97123.50
2018-01-04T13:28:10.640Z,97121.52
2018-01-04T13:30:40.461Z,97133.42
2018-01-04T13:33:10.320Z,97138.80
2018-01-04T13:35:40.745Z,97140.53
2018-01-04T13:38:10.707Z,97137.17
2018-01-04T13:40:40.521Z,97135.14
2018-01-04T13:43:10.361Z,97136.29
2018-01-04T13:45:40.121Z,97132.73
2018-01-04T13:48:10.065Z,97141.42
2018-01-04T13:50:39.846Z,97153.59
2018-01-04T13:53:10.821Z,97144.91
2018-01-04T13:55:40.634Z,97149.70
2018-01-04T13:58:10.458Z,97145.69
2018-01-04T14:00:40.261Z,97143.53
2018-01-04T14:03:10.095Z,97141.55
2018-01-04T14:05:40.081Z,97141.55
2018-01-04T14:08:09.906Z,97138.98
2018-01-04T14:10:39.803Z,97138.49
2018-01-04T14:13:09.771Z,97139.14
2018-01-04T14:15:39.765Z,97136.88
2018-01-04T14:18:09.662Z,97134.72
2018-01-04T14:20:39.522Z,97139.64
2018-01-04T14:23:09.300Z,97146.98
2018-01-04T14:25:39.147Z,97150.07
2018-01-04T14:28:08.957Z,97149.39
2018-01-04T14:30:38.834Z,97148.17
2018-01-04T14:33:08.683Z,97144.27
2018-01-04T14:35:39.148Z,97152.59
2018-01-04T14:38:09.020Z,97151.62
2018-01-04T14:40:38.938Z,97144.39
2018-01-04T14:43:08.842Z,97146.39
2018-01-04T14:45:38.672Z,97145.29
2018-01-04T14:48:09.156Z,97149.06
2018-01-04T14:50:40.098Z,97142.78
2018-01-04T14:53:09.982Z,97135.92
2018-01-04T14:55:39.804Z,97132.97
2018-01-04T14:58:09.910Z,97138.16
2018-01-04T15:00:39.890Z,97138.12
2018-01-04T15:03:10.370Z,97134.47
2018-01-04T15:05:40.170Z,97132.43
2018-01-04T15:08:10.020Z,97130.36
2018-01-04T15:10:39.851Z,97136.11
2018-01-04T15:13:09.666Z,97132.30
2018-01-04T15:15:39.647Z,97132.28
2018-01-04T15:18:09.533Z,97130.38
2018-01-04T15:20:39.485Z,97129.39
2018-01-04T15:23:09.305Z,97122.45
2018-01-04T15:25:39.146Z,97123.15
2018-01-04T15:28:09.077Z,97117.23
2018-01-04T15:30:39.037Z,97114.56
2018-01-04T15:33:08.865Z,97109.58
2018-01-04T15:35:39.057Z,97109.73
2018-01-04T15:38:08.903Z,97106.86
2018-01-04T15:40:38.720Z,97106.05
2018-01-04T15:43:08.358Z,97096.25
2018-01-04T15:45:38.197Z,97091.48
2018-01-04T15:48:08.033Z,97093.98
2018-01-04T15:50:37.873Z,97091.59
2018-01-04T15:53:08.056Z,97095.48
2018-01-04T15:55:38.118Z,97093.73
2018-01-04T15:58:07.994Z,97090.77
2018-01-04T16:00:37.806Z,97092.28
2018-01-04T16:03:07.629Z,97086.89
2018-01-04T16:05:41.457Z,97091.17
2018-01-04T16:08:11.297Z,97091.02
2018-01-04T16:10:41.150Z,97092.47
2018-01-04T16:13:10.992Z,97093.44
2018-01-04T16:15:40.894Z,97091.17
2018-01-04T16:18:10.761Z,97079.11
2018-01-04T16:20:42.398Z,97081.78
2018-01-04T16:23:12.324Z,97075.26
2018-01-04T16:25:42.147Z,97077.00
2018-01-04T16:28:11.955Z,97070.05
2018-01-04T16:30:41.778Z,97073.81
2018-01-04T16:33:11.645Z,97072.19
2018-01-04T16:35:41.459Z,97071.66
2018-01-04T16:38:11.272Z,97067.01
2018-01-04T16:40:41.162Z,97069.13
2018-01-04T16:43:11.107Z,97062.50
2018-01-04T16:45:41.018Z,97072.77
2018-01-04T16:48:10.787Z,97061.38
2018-01-04T16:50:40.673Z,97057.48
2018-01-04T16:53:10.479Z,97055.05
2018-01-04T16:55:40.357Z,97047.62
2018-01-04T16:58:10.171Z,97050.93
2018-01-04T17:00:40.081Z,97048.37
2018-01-04T17:03:09.910Z,97045.98
2018-01-04T17:05:39.742Z,97044.77
2018-01-04T17:08:09.810Z,97047.61
2018-01-04T17:10:39.680Z,97037.69
2018-01-04T17:13:09.577Z,97031.13
2018-01-04T17:15:39.639Z,97040.89
2018-01-04T17:18:09.601Z,97039.27
2018-01-04T17:20:39.453Z,97029.39
2018-01-04T17:23:09.257Z,97026.25
2018-01-04T17:25:39.037Z,97031.99
2018-01-04T17:28:08.850Z,97023.80
2018-01-04T17:30:38.664Z,97024.85
2018-01-04T17:33:08.489Z,97027.92
2018-01-04T17:35:38.282Z,97023.27
2018-01-04T17:38:08.104Z,97020.03
2018-01-04T17:40:37.897Z,97016.84
2018-01-04T17:43:07.718Z,97010.44
2018-01-04T17:45:37.521Z,97011.08
2018-01-04T17:48:07.839Z,97004.65
2018-01-04T17:50:37.675Z,96997.69
2018-01-04T17:53:07.503Z,97003.44
2018-01-04T17:55:37.350Z,96994.65
2018-01-04T17:58:07.228Z,96999.47
2018-01-04T18:00:37.040Z,96986.35
2018-01-04T18:03:10.985Z,96983.84
2018-01-04T18:05:40.746Z,96978.63
2018-01-04T18:08:10.414Z,96975.55
2018-01-04T18:10:40.849Z,96977.63
2018-01-04T18:13:10.708Z,96968.92
2018-01-04T18:15:41.010Z,96965.97
2018-01-04T18:18:10.691Z,96965.44
2018-01-04T18:20:40.565Z,96959.81
2018-01-04T18:23:10.752Z,96962.36
2018-01-04T18:25:40.154Z,96954.88
2018-01-04T18:28:10.028Z,96950.86
2018-01-04T18:30:39.873Z,96947.14
2018-01-04T18:33:09.698Z,96952.89
2018-01-04T18:35:39.653Z,96948.92
2018-01-04T18:38:09.626Z,96954.51
2018-01-04T18:40:39.333Z,96948.48
2018-01-04T18:43:09.308Z,96951.95
2018-01-04T18:45:39.094Z,96952.89
2018-01-04T18:48:08.618Z,96957.22
2018-01-04T18:50:38.447Z,96957.51
2018-01-04T18:53:08.444Z,96957.09
2018-01-04T18:55:38.033Z,96957.51
2018-01-04T18:58:08.007Z,96956.98
2018-01-04T19:00:37.879Z,96949.33
2018-01-04T19:03:07.882Z,96942.89
2018-01-04T19:05:37.693Z,96944.34
2018-01-04T19:08:07.484Z,96944.59
2018-01-04T19:10:47.088Z,96948.11
2018-01-04T19:13:19.132Z,96937.70
2018-01-04T19:15:49.047Z,96938.23
2018-01-04T19:18:18.847Z,96934.88
2018-01-04T19:20:48.430Z,96935.65
2018-01-04T19:23:18.234Z,96937.83
2018-01-04T19:25:47.827Z,96934.34
2018-01-04T19:28:17.638Z,96936.21
2018-01-04T19:30:47.521Z,96934.59
2018-01-04T19:33:23.524Z,96930.88
2018-01-04T19:35:53.899Z,96926.38
2018-01-04T19:38:23.496Z,96923.05
2018-01-04T19:40:54.292Z,96925.56
2018-01-04T19:43:24.649Z,96927.30
2018-01-04T19:45:54.472Z,96919.66
2018-01-04T19:48:24.308Z,96911.48
2018-01-04T19:50:54.119Z,96909.77
2018-01-04T19:53:23.959Z,96912.94
2018-01-04T19:55:53.791Z,96918.28
2018-01-04T19:58:23.709Z,96916.41
2018-01-04T20:00:53.506Z,96899.05
2018-01-04T20:03:23.350Z,96899.86
2018-01-04T20:05:53.411Z,96892.81
2018-01-04T20:08:23.244Z,96907.75
2018-01-04T20:10:55.040Z,96887.31
2018-01-04T20:13:24.952Z,96891.47
2018-01-04T20:15:55.629Z,96885.97
2018-01-04T20:18:33.472Z,96885.56
2018-01-04T20:21:03.302Z,96883.17
2018-01-04T20:23:33.262Z,96864.31
2018-01-04T20:26:03.153Z,96873.83
2018-01-04T20:28:33.159Z,96878.67
2018-01-04T20:31:03.085Z,96868.33
2018-01-04T20:33:32.806Z,96872.05
2018-01-04T20:36:02.723Z,96879.30
2018-01-04T20:38:32.749Z,96885.84
2018-01-04T20:41:02.597Z,96879.94
2018-01-04T20:43:32.418Z,96879.50
2018-01-04T20:46:02.230Z,96886.87
2018-01-04T20:48:32.082Z,96878.33
2018-01-04T20:51:05.623Z,96873.35
2018-01-04T20:53:35.488Z,96867.89
2018-01-04T20:56:07.082Z,96857.33
2018-01-04T20:58:36.863Z,96856.39
2018-01-04T21:01:06.816Z,96864.59
2018-01-04T21:03:43.364Z,96866.71
2018-01-04T21:06:14.754Z,96867.48
2018-01-04T21:08:44.994Z,96852.79
2018-01-04T21:11:20.232Z,96838.13
2018-01-04T21:13:50.503Z,96848.71
2018-01-04T21:16:19.975Z,96852.07
2018-01-04T21:18:49.904Z,96859.31
2018-01-04T21:21:19.715Z,96862.78
2018-01-04T21:23:49.772Z,96871.33
2018-01-04T21:26:19.615Z,96865.18
2018-01-04T21:28:49.407Z,96874.66
2018-01-04T21:31:19.374Z,96878.41
2018-01-04T21:33:48.590Z,96874.44
2018-01-04T21:36:18.165Z,96874.81
2018-01-04T21:38:47.991Z,96874.56
2018-01-04T21:41:17.784Z,96874.72
2018-01-04T21:43:47.604Z,96883.95
2018-01-04T21:46:17.432Z,96882.58
2018-01-04T21:48:47.274Z,96875.50
2018-01-04T21:51:17.425Z,96884.07
2018-01-04T21:53:47.437Z,96874.44
2018-01-04T21:56:16.803Z,96873.23
2018-01-04T21:58:46.606Z,96875.37
2018-01-04T22:01:16.772Z,96880.31
2018-01-04T22:03:46.436Z,96880.88
2018-01-04T22:06:16.401Z,96879.38
2018-01-04T22:08:46.076Z,96875.91
2018-01-04T22:11:15.786Z,96866.59
2018-01-04T22:13:45.607Z,96865.25
2018-01-04T22:16:14.905Z,96860.03
2018-01-04T22:18:44.681Z,96851.77
2018-01-04T22:21:14.254Z,96846.33
2018-01-04T22:23:44.061Z,96853.94
2018-01-04T22:26:13.874Z,96848.69
2018-01-04T22:28:43.681Z,96844.44
2018-01-04T22:31:13.605Z,96841.23
2018-01-04T22:33:43.570Z,96841.08
2018-01-04T22:36:13.647Z,96834.80
2018-01-04T22:38:44.163Z,96838.97
2018-01-04T22:41:14.344Z,96833.84
2018-01-04T22:43:44.480Z,96841.70
2018-01-04T22:46:14.766Z,96845.22
2018-01-04T22:48:45.115Z,96846.92
2018-01-04T22:51:15.020Z,96853.23
2018-01-04T22:53:45.219Z,96855.74
2018-01-04T22:56:14.846Z,96848.13
2018-01-04T22:58:44.736Z,96845.30
2018-01-04T23:01:14.404Z,96841.45
2018-01-04T23:03:45.247Z,96819.15
2018-01-04T23:06:15.419Z,96810.91
2018-01-04T23:08:46.393Z,96804.45
2018-01-04T23:11:20.399Z,96803.38
2018-01-04T23:13:51.452Z,96809.42
2018-01-04T23:16:23.205Z,96789.86
2018-01-04T23:18:53.505Z,96792.46
2018-01-04T23:21:23.684Z,96787.64
2018-01-04T23:23:53.730Z,96803.70
2018-01-04T23:26:23.946Z,96785.35
2018-01-04T23:28:55.222Z,96800.20
2018-01-04T23:31:24.895Z,96794.61
2018-01-04T23:33:54.829Z,96788.05
2018-01-04T23:36:25.516Z,96808.39
2018-01-04T23:38:55.939Z,96786.69
2018-01-04T23:41:26.070Z,96785.23
2018-01-04T23:43:55.942Z,96788.58
2018-01-04T23:46:25.837Z,96787.25
2018-01-04T23:48:55.774Z,96776.84
2018-01-04T23:51:25.680Z,96780.16
2018-01-04T23:53:56.675Z,96770.69
2018-01-04T23:56:27.578Z,96770.00
2018-01-04T23:58:57.291Z,96768.82
